createdAt,value
2018-11-01T00:01:41.401Z,70.05
2018-11-01T00:04:10.085Z,68.76
2018-11-01T00:06:39.853Z,69.99
2018-11-01T00:09:09.851Z,69.43
2018-11-01T00:11:38.997Z,69.40
2018-11-01T00:14:08.221Z,69.59
2018-11-01T00:16:36.956Z,68.70
2018-11-01T00:19:06.465Z,69.31
2018-11-01T00:21:36.131Z,68.80
2018-11-01T00:24:04.797Z,69.69
2018-11-01T00:26:33.275Z,69.11
2018-11-01T00:29:01.916Z,69.71
2018-11-01T00:31:30.385Z,69.44
2018-11-01T00:33:58.923Z,69.81
2018-11-01T00:36:27.443Z,69.64
2018-11-01T00:38:57.072Z,68.91
2018-11-01T00:41:25.533Z,68.90
2018-11-01T00:43:54.035Z,69.14
2018-11-01T00:46:23.462Z,70.00
2018-11-01T00:48:53.013Z,69.51
2018-11-01T00:51:21.800Z,69.61
2018-11-01T00:53:51.345Z,69.48
2018-11-01T00:56:19.800Z,69.31
2018-11-01T00:58:51.780Z,69.90
2018-11-01T01:01:21.460Z,69.97
2018-11-01T01:03:50.725Z,69.26
2018-11-01T01:06:24.192Z,70.24
2018-11-01T01:08:53.426Z,69.88
2018-11-01T01:11:22.037Z,69.39
2018-11-01T01:13:50.516Z,69.63
2018-11-01T01:16:19.025Z,69.46
2018-11-01T01:18:47.952Z,69.88
2018-11-01T01:21:17.387Z,69.22
2018-11-01T01:23:45.851Z,69.16
2018-11-01T01:26:15.230Z,69.15
2018-11-01T01:28:43.780Z,68.88
2018-11-01T01:31:12.402Z,69.13
2018-11-01T01:33:41.057Z,68.99
2018-11-01T01:36:09.620Z,69.85
2018-11-01T01:38:38.079Z,68.96
2018-11-01T01:41:06.939Z,68.99
2018-11-01T01:43:36.171Z,69.19
2018-11-01T01:46:04.715Z,70.19
2018-11-01T01:48:33.357Z,70.55
2018-11-01T01:51:01.881Z,71.83
2018-11-01T01:53:30.581Z,71.83
2018-11-01T01:55:59.014Z,70.69
2018-11-01T01:58:27.649Z,70.26
2018-11-01T02:01:01.046Z,70.74
2018-11-01T02:03:29.691Z,70.41
2018-11-01T02:05:59.209Z,69.98
2018-11-01T02:08:27.743Z,70.59
2018-11-01T02:10:56.375Z,70.48
2018-11-01T02:13:24.830Z,69.70
2018-11-01T02:15:53.818Z,69.87
2018-11-01T02:18:22.970Z,70.19
2018-11-01T02:20:52.576Z,70.89
2018-11-01T02:23:21.277Z,71.23
2018-11-01T02:25:50.007Z,71.10
2018-11-01T02:28:19.633Z,70.28
2018-11-01T02:30:48.161Z,70.69
2018-11-01T02:33:17.854Z,70.19
2018-11-01T02:35:46.989Z,70.86
2018-11-01T02:38:15.964Z,70.03
2018-11-01T02:40:45.806Z,70.32
2018-11-01T02:43:14.369Z,71.33
2018-11-01T02:45:43.139Z,70.63
2018-11-01T02:48:11.595Z,71.10
2018-11-01T02:50:41.532Z,70.68
2018-11-01T02:53:10.558Z,71.02
2018-11-01T02:55:38.980Z,70.60
2018-11-01T02:58:07.861Z,70.70
2018-11-01T03:00:37.032Z,70.23
2018-11-01T03:03:06.207Z,69.87
2018-11-01T03:05:35.829Z,70.74
2018-11-01T03:08:04.295Z,70.38
2018-11-01T03:10:32.831Z,70.91
2018-11-01T03:13:01.541Z,70.84
2018-11-01T03:15:31.755Z,71.21
2018-11-01T03:18:00.343Z,70.40
2018-11-01T03:20:28.901Z,70.40
2018-11-01T03:22:58.518Z,70.24
2018-11-01T03:25:27.084Z,70.02
2018-11-01T03:27:55.624Z,70.02
2018-11-01T03:30:25.331Z,70.84
2018-11-01T03:32:53.880Z,70.67
2018-11-01T03:35:22.290Z,70.54
2018-11-01T03:37:51.463Z,70.44
2018-11-01T03:40:20.656Z,70.58
2018-11-01T03:42:49.773Z,70.14
2018-11-01T03:45:19.422Z,70.73
2018-11-01T03:47:47.967Z,70.42
2018-11-01T03:50:16.434Z,70.64
2018-11-01T03:52:44.986Z,70.10
2018-11-01T03:55:13.619Z,70.05
2018-11-01T03:57:43.266Z,70.65
2018-11-01T04:00:14.326Z,71.38
2018-11-01T04:02:44.376Z,70.37
2018-11-01T04:05:13.406Z,70.44
2018-11-01T04:07:42.328Z,71.12
2018-11-01T04:10:16.125Z,70.38
2018-11-01T04:12:45.283Z,70.88
2018-11-01T04:15:14.943Z,70.54
2018-11-01T04:17:43.520Z,70.90
2018-11-01T04:20:12.921Z,71.42
2018-11-01T04:22:42.150Z,71.30
2018-11-01T04:25:11.198Z,70.39
2018-11-01T04:27:39.641Z,70.30
2018-11-01T04:30:09.311Z,71.36
2018-11-01T04:32:37.748Z,71.95
2018-11-01T04:35:07.422Z,72.64
2018-11-01T04:37:36.852Z,73.07
2018-11-01T04:40:06.078Z,72.62
2018-11-01T04:42:35.010Z,73.07
2018-11-01T04:45:04.089Z,72.63
2018-11-01T04:47:33.824Z,71.92
2018-11-01T04:50:02.263Z,72.64
2018-11-01T04:52:30.775Z,72.58
2018-11-01T04:54:59.669Z,72.24
2018-11-01T04:57:28.298Z,72.54
2018-11-01T04:59:56.860Z,71.93
2018-11-01T05:02:25.464Z,71.43
2018-11-01T05:04:54.127Z,71.54
2018-11-01T05:07:22.656Z,71.39
2018-11-01T05:09:51.216Z,71.99
2018-11-01T05:12:19.672Z,71.46
2018-11-01T05:14:48.311Z,71.47
2018-11-01T05:17:16.824Z,71.70
2018-11-01T05:19:45.349Z,72.59
2018-11-01T05:22:14.023Z,71.66
2018-11-01T05:24:42.566Z,72.37
2018-11-01T05:27:11.091Z,71.91
2018-11-01T05:29:39.729Z,72.29
2018-11-01T05:32:08.914Z,72.18
2018-11-01T05:34:37.643Z,72.13
2018-11-01T05:37:06.679Z,71.78
2018-11-01T05:39:35.157Z,72.54
2018-11-01T05:42:03.717Z,72.24
2018-11-01T05:44:32.363Z,72.49
2018-11-01T05:47:02.104Z,72.34
2018-11-01T05:49:30.782Z,72.10
2018-11-01T05:51:59.668Z,71.87
2018-11-01T05:54:28.365Z,71.66
2018-11-01T05:56:58.031Z,72.10
2018-11-01T05:59:26.563Z,72.08
2018-11-01T06:01:59.794Z,72.36
2018-11-01T06:04:28.295Z,72.67
2018-11-01T06:06:56.772Z,72.53
2018-11-01T06:09:30.698Z,71.79
2018-11-01T06:12:00.499Z,72.21
2018-11-01T06:14:29.594Z,71.78
2018-11-01T06:16:58.495Z,71.83
2018-11-01T06:19:28.599Z,72.01
2018-11-01T06:21:58.172Z,72.54
2018-11-01T06:24:26.677Z,72.33
2018-11-01T06:26:55.352Z,72.22
2018-11-01T06:29:25.142Z,71.84
2018-11-01T06:31:53.639Z,72.06
2018-11-01T06:34:28.027Z,72.86
2018-11-01T06:36:57.552Z,72.77
2018-11-01T06:39:26.773Z,72.10
2018-11-01T06:41:55.536Z,72.81
2018-11-01T06:44:25.387Z,71.90
2018-11-01T06:46:54.658Z,72.73
2018-11-01T06:49:23.328Z,71.75
2018-11-01T06:51:52.790Z,72.73
2018-11-01T06:54:21.398Z,72.16
2018-11-01T06:56:50.688Z,72.18
2018-11-01T06:59:20.571Z,71.83
2018-11-01T07:01:49.016Z,71.92
2018-11-01T07:04:18.491Z,71.98
2018-11-01T07:06:46.973Z,72.65
2018-11-01T07:09:15.870Z,72.53
2018-11-01T07:11:45.255Z,72.26
2018-11-01T07:14:13.805Z,72.17
2018-11-01T07:16:42.378Z,72.23
2018-11-01T07:19:10.872Z,72.89
2018-11-01T07:21:40.664Z,72.42
2018-11-01T07:24:09.163Z,72.56
2018-11-01T07:26:37.807Z,73.45
2018-11-01T07:29:06.290Z,73.67
2018-11-01T07:31:34.743Z,73.50
2018-11-01T07:34:03.272Z,74.09
2018-11-01T07:36:32.789Z,74.78
2018-11-01T07:39:02.521Z,74.24
2018-11-01T07:41:31.076Z,73.40
2018-11-01T07:43:59.549Z,73.38
2018-11-01T07:46:28.139Z,73.07
2018-11-01T07:48:56.665Z,73.30
2018-11-01T07:51:26.182Z,73.94
2018-11-01T07:53:55.202Z,74.19
2018-11-01T07:56:23.730Z,74.08
2018-11-01T07:58:52.274Z,73.92
2018-11-01T08:01:20.783Z,73.90
2018-11-01T08:03:49.408Z,73.78
2018-11-01T08:06:19.454Z,73.37
2018-11-01T08:08:48.334Z,74.00
2018-11-01T08:11:17.240Z,74.44
2018-11-01T08:13:46.219Z,73.30
2018-11-01T08:16:16.280Z,74.62
2018-11-01T08:18:45.317Z,74.24
2018-11-01T08:21:13.965Z,74.59
2018-11-01T08:23:42.763Z,74.14
2018-11-01T08:26:12.465Z,73.65
2018-11-01T08:28:41.114Z,74.02
2018-11-01T08:31:09.712Z,74.19
2018-11-01T08:33:38.306Z,73.61
2018-11-01T08:36:06.974Z,74.23
2018-11-01T08:38:36.886Z,74.80
2018-11-01T08:41:06.643Z,74.42
2018-11-01T08:43:35.213Z,73.37
2018-11-01T08:46:04.042Z,72.99
2018-11-01T08:48:32.589Z,73.20
2018-11-01T08:51:01.868Z,73.36
2018-11-01T08:53:31.088Z,73.20
2018-11-01T08:55:59.788Z,74.26
2018-11-01T08:58:29.262Z,73.60
2018-11-01T09:00:58.725Z,73.90
2018-11-01T09:03:27.393Z,74.67
2018-11-01T09:05:56.982Z,75.05
2018-11-01T09:08:26.327Z,75.07
2018-11-01T09:10:54.871Z,75.70
2018-11-01T09:13:28.591Z,76.12
2018-11-01T09:15:57.533Z,75.63
2018-11-01T09:18:27.811Z,75.89
2018-11-01T09:20:57.391Z,75.74
2018-11-01T09:23:26.273Z,74.92
2018-11-01T09:25:55.178Z,74.49
2018-11-01T09:28:23.859Z,75.20
2018-11-01T09:30:52.581Z,74.97
2018-11-01T09:33:25.802Z,76.27
2018-11-01T09:35:54.279Z,76.25
2018-11-01T09:38:23.501Z,76.94
2018-11-01T09:40:52.193Z,77.21
2018-11-01T09:43:20.916Z,76.16
2018-11-01T09:45:49.422Z,75.52
2018-11-01T09:48:19.070Z,76.52
2018-11-01T09:50:47.646Z,77.34
2018-11-01T09:53:16.344Z,76.95
2018-11-01T09:55:44.932Z,76.23
2018-11-01T09:58:15.446Z,74.86
2018-11-01T10:00:43.954Z,75.67
2018-11-01T10:03:13.355Z,76.08
2018-11-01T10:05:56.693Z,75.80
2018-11-01T10:08:25.226Z,75.32
2018-11-01T10:10:53.865Z,74.90
2018-11-01T10:13:25.450Z,74.80
2018-11-01T10:15:57.076Z,73.62
2018-11-01T10:18:33.729Z,73.33
2018-11-01T10:21:04.151Z,73.09
2018-11-01T10:23:36.471Z,72.51
2018-11-01T10:26:06.727Z,71.60
2018-11-01T10:28:37.682Z,71.76
2018-11-01T10:31:07.049Z,72.70
2018-11-01T10:33:36.199Z,73.92
2018-11-01T10:36:05.919Z,74.17
2018-11-01T10:38:35.811Z,73.98
2018-11-01T10:41:05.240Z,73.50
2018-11-01T10:43:34.472Z,73.47
2018-11-01T10:46:05.101Z,72.98
2018-11-01T10:48:33.866Z,67.28
2018-11-01T10:51:09.183Z,57.51
2018-11-01T10:53:38.397Z,54.95
2018-11-01T10:56:10.592Z,51.91
2018-11-01T10:58:41.637Z,48.52
2018-11-01T11:01:15.592Z,45.33
2018-11-01T11:03:45.647Z,41.86
2018-11-01T11:06:14.875Z,41.47
2018-11-01T11:08:44.784Z,40.18
2018-11-01T11:11:14.627Z,38.67
2018-11-01T11:13:43.297Z,38.79
2018-11-01T11:16:12.279Z,37.68
2018-11-01T11:18:40.872Z,36.87
2018-11-01T11:21:09.824Z,35.75
2018-11-01T11:23:38.662Z,36.14
2018-11-01T11:26:08.560Z,35.91
2018-11-01T11:28:37.182Z,35.71
2018-11-01T11:31:06.690Z,34.70
2018-11-01T11:33:35.849Z,34.63
2018-11-01T11:36:04.755Z,33.38
2018-11-01T11:38:33.296Z,33.08
2018-11-01T11:41:01.996Z,33.04
2018-11-01T11:43:46.447Z,32.03
2018-11-01T11:46:20.929Z,30.23
2018-11-01T11:48:50.835Z,31.61
2018-11-01T11:51:30.378Z,31.82
2018-11-01T11:54:13.845Z,30.61
2018-11-01T11:56:49.189Z,30.01
2018-11-01T11:59:17.811Z,29.50
2018-11-01T12:01:47.281Z,30.16
2018-11-01T12:04:16.685Z,31.88
2018-11-01T12:06:50.131Z,31.65
2018-11-01T12:09:21.677Z,30.92
2018-11-01T12:11:56.589Z,31.32
2018-11-01T12:14:33.143Z,28.84
2018-11-01T12:17:13.792Z,29.59
2018-11-01T12:19:47.155Z,30.93
2018-11-01T12:22:19.391Z,29.98
2018-11-01T12:24:51.555Z,29.85
2018-11-01T12:27:50.013Z,30.29
2018-11-01T12:30:18.518Z,30.24
2018-11-01T12:32:48.738Z,29.37
2018-11-01T12:35:17.800Z,28.77
2018-11-01T12:37:46.378Z,29.35
2018-11-01T12:40:16.221Z,30.29
2018-11-01T12:42:45.771Z,29.71
2018-11-01T12:45:15.964Z,30.06
2018-11-01T12:47:46.881Z,31.16
2018-11-01T12:50:22.441Z,33.15
2018-11-01T12:52:53.046Z,32.84
2018-11-01T12:55:21.640Z,32.89
2018-11-01T12:57:50.801Z,32.27
2018-11-01T13:00:36.120Z,32.41
2018-11-01T13:03:06.165Z,31.17
2018-11-01T13:05:38.184Z,31.10
2018-11-01T13:08:09.701Z,31.30
2018-11-01T13:10:39.223Z,30.75
2018-11-01T13:13:11.857Z,30.42
2018-11-01T13:15:42.741Z,30.34
2018-11-01T13:18:14.258Z,30.27
2018-11-01T13:20:49.080Z,31.05
2018-11-01T13:23:22.276Z,30.89
2018-11-01T13:25:50.795Z,31.55
2018-11-01T13:28:33.104Z,32.28
2018-11-01T13:31:06.736Z,34.12
2018-11-01T13:33:36.428Z,35.71
2018-11-01T13:36:06.225Z,36.25
2018-11-01T13:38:40.571Z,37.35
2018-11-01T13:41:09.512Z,37.93
2018-11-01T13:43:40.682Z,38.78
2018-11-01T13:46:11.528Z,39.39
2018-11-01T13:48:41.669Z,40.49
2018-11-01T13:51:15.730Z,40.91
2018-11-01T13:53:47.263Z,41.67
2018-11-01T13:56:20.834Z,42.14
2018-11-01T13:58:57.038Z,42.04
2018-11-01T14:01:27.345Z,41.92
2018-11-01T14:03:58.053Z,42.04
2018-11-01T14:06:31.424Z,42.26
2018-11-01T14:09:02.521Z,42.83
2018-11-01T14:11:37.032Z,43.34
2018-11-01T14:14:07.982Z,43.04
2018-11-01T14:16:40.336Z,43.23
2018-11-01T14:19:17.365Z,43.07
2018-11-01T14:21:46.628Z,43.65
2018-11-01T14:24:15.621Z,45.06
2018-11-01T14:26:45.178Z,45.97
2018-11-01T14:29:13.931Z,45.26
2018-11-01T14:31:42.626Z,46.20
2018-11-01T14:34:11.407Z,46.46
2018-11-01T14:36:40.847Z,47.60
2018-11-01T14:39:11.535Z,48.75
2018-11-01T14:41:41.011Z,49.52
2018-11-01T14:44:11.034Z,49.44
2018-11-01T14:46:40.842Z,49.68
2018-11-01T14:49:10.191Z,49.71
2018-11-01T14:51:39.412Z,49.29
2018-11-01T14:54:09.695Z,49.55
2018-11-01T14:56:38.989Z,49.78
2018-11-01T14:59:07.937Z,49.88
2018-11-01T15:01:36.248Z,50.54
2018-11-01T15:04:05.475Z,51.21
2018-11-01T15:06:34.159Z,51.42
2018-11-01T15:09:03.989Z,51.71
2018-11-01T15:11:32.778Z,51.42
2018-11-01T15:14:01.964Z,51.44
2018-11-01T15:16:33.839Z,51.83
2018-11-01T15:19:03.547Z,51.78
2018-11-01T15:21:32.330Z,52.30
2018-11-01T15:24:00.974Z,52.35
2018-11-01T15:26:30.690Z,52.69
2018-11-01T15:29:00.116Z,52.57
2018-11-01T15:31:29.797Z,53.06
2018-11-01T15:34:10.704Z,52.70
2018-11-01T15:36:39.544Z,52.87
2018-11-01T15:39:10.993Z,52.87
2018-11-01T15:41:52.265Z,53.57
2018-11-01T15:44:24.082Z,53.33
2018-11-01T15:46:57.002Z,53.47
2018-11-01T15:49:32.826Z,53.61
2018-11-01T15:52:03.711Z,53.75
2018-11-01T15:54:35.178Z,53.95
2018-11-01T15:57:04.728Z,54.08
2018-11-01T15:59:34.138Z,54.24
2018-11-01T16:05:09.126Z,54.73
2018-11-01T16:07:37.863Z,55.17
2018-11-01T16:10:07.694Z,55.46
2018-11-01T16:12:37.326Z,55.89
2018-11-01T16:15:09.846Z,55.75
2018-11-01T16:17:38.428Z,55.87
2018-11-01T16:20:08.321Z,56.33
2018-11-01T16:22:39.285Z,56.44
2018-11-01T16:25:08.038Z,56.61
2018-11-01T16:27:37.424Z,56.64
2018-11-01T16:30:07.019Z,57.03
2018-11-01T16:32:36.629Z,57.34
2018-11-01T16:35:06.199Z,57.60
2018-11-01T16:37:37.024Z,58.03
2018-11-01T16:40:07.584Z,58.26
2018-11-01T16:42:37.259Z,58.29
2018-11-01T16:45:07.931Z,58.77
2018-11-01T16:47:37.727Z,58.76
2018-11-01T16:50:07.673Z,59.05
2018-11-01T16:52:38.576Z,59.41
2018-11-01T16:55:08.046Z,59.26
2018-11-01T16:57:37.975Z,59.67
2018-11-01T17:00:09.132Z,59.38
2018-11-01T17:02:39.543Z,59.39
2018-11-01T17:05:09.742Z,59.50
2018-11-01T17:07:40.397Z,59.30
2018-11-01T17:10:10.602Z,59.54
2018-11-01T17:12:40.894Z,60.25
2018-11-01T17:15:12.680Z,60.10
2018-11-01T17:17:42.633Z,59.96
2018-11-01T17:20:11.407Z,60.05
2018-11-01T17:22:42.526Z,60.05
2018-11-01T17:25:11.484Z,60.02
2018-11-01T17:27:41.933Z,59.86
2018-11-01T17:30:11.020Z,60.10
2018-11-01T17:32:45.286Z,60.00
2018-11-01T17:35:14.513Z,60.76
2018-11-01T17:37:48.257Z,60.43
2018-11-01T17:40:18.141Z,60.41
2018-11-01T17:42:47.005Z,60.85
2018-11-01T17:45:17.688Z,60.46
2018-11-01T17:47:47.460Z,60.62
2018-11-01T17:50:16.960Z,60.94
2018-11-01T17:52:46.083Z,60.34
2018-11-01T17:55:15.202Z,60.19
2018-11-01T17:57:45.383Z,60.41
2018-11-01T18:00:15.381Z,61.37
2018-11-01T18:02:44.984Z,61.90
2018-11-01T18:05:15.658Z,61.76
2018-11-01T18:07:47.969Z,61.42
2018-11-01T18:10:17.445Z,62.19
2018-11-01T18:12:48.025Z,61.68
2018-11-01T18:15:18.865Z,61.38
2018-11-01T18:17:49.313Z,61.62
2018-11-01T18:20:21.050Z,62.48
2018-11-01T18:22:51.277Z,62.68
2018-11-01T18:25:25.343Z,62.89
2018-11-01T18:27:55.790Z,64.23
2018-11-01T18:30:25.580Z,64.18
2018-11-01T18:32:55.149Z,64.42
2018-11-01T18:35:25.282Z,64.38
2018-11-01T18:37:55.486Z,63.23
2018-11-01T18:40:26.585Z,63.27
2018-11-01T18:42:57.315Z,64.48
2018-11-01T18:45:27.709Z,63.88
2018-11-01T18:47:58.036Z,62.87
2018-11-01T18:50:28.484Z,63.33
2018-11-01T18:55:56.436Z,63.38
2018-11-01T18:58:28.278Z,63.72
2018-11-01T19:00:59.171Z,62.94
2018-11-01T19:03:31.561Z,63.26
2018-11-01T19:06:06.289Z,63.84
2018-11-01T19:08:36.266Z,63.68
2018-11-01T19:11:09.015Z,64.20
2018-11-01T19:13:39.080Z,64.79
2018-11-01T19:16:10.201Z,64.93
2018-11-01T19:18:39.048Z,64.49
2018-11-01T19:21:09.641Z,64.91
2018-11-01T19:23:40.710Z,66.52
2018-11-01T19:26:10.811Z,67.56
2018-11-01T19:28:40.326Z,67.38
2018-11-01T19:31:09.101Z,68.92
2018-11-01T19:33:38.486Z,69.55
2018-11-01T19:36:07.262Z,70.16
2018-11-01T19:38:37.093Z,69.81
2018-11-01T19:41:06.024Z,70.57
2018-11-01T19:43:35.865Z,69.16
2018-11-01T19:46:05.329Z,68.55
2018-11-01T19:48:35.756Z,68.31
2018-11-01T19:51:04.342Z,68.61
2018-11-01T19:53:33.653Z,69.02
2018-11-01T19:56:02.259Z,69.46
2018-11-01T19:58:30.879Z,69.05
2018-11-01T20:01:01.068Z,68.45
2018-11-01T20:03:32.133Z,67.65
2018-11-01T20:06:02.342Z,67.65
2018-11-01T20:08:37.370Z,67.35
2018-11-01T20:11:09.948Z,66.59
2018-11-01T20:13:45.982Z,67.12
2018-11-01T20:16:17.386Z,67.48
2018-11-01T20:18:46.726Z,67.36
2018-11-01T20:21:17.353Z,67.75
2018-11-01T20:23:48.900Z,67.77
2018-11-01T20:26:18.563Z,67.59
2018-11-01T20:28:49.772Z,67.76
2018-11-01T20:31:19.911Z,67.58
2018-11-01T20:33:52.211Z,67.72
2018-11-01T20:36:23.543Z,67.69
2018-11-01T20:38:55.117Z,68.09
2018-11-01T20:41:26.777Z,68.26
2018-11-01T20:43:55.407Z,68.13
2018-11-01T20:46:24.727Z,68.59
2018-11-01T20:48:54.252Z,68.67
2018-11-01T20:51:22.931Z,68.93
2018-11-01T20:53:51.470Z,68.21
2018-11-01T20:56:24.976Z,68.15
2018-11-01T20:58:54.724Z,68.68
2018-11-01T21:01:24.176Z,68.66
2018-11-01T21:03:53.544Z,68.22
2018-11-01T21:06:22.187Z,68.31
2018-11-01T21:08:50.796Z,68.24
2018-11-01T21:11:19.997Z,68.50
2018-11-01T21:13:48.647Z,68.19
2018-11-01T21:16:17.303Z,68.32
2018-11-01T21:18:47.352Z,68.81
2018-11-01T21:21:17.374Z,68.22
2018-11-01T21:23:47.084Z,68.53
2018-11-01T21:26:17.195Z,68.91
2018-11-01T21:28:48.044Z,68.50
2018-11-01T21:31:17.909Z,69.02
2018-11-01T21:33:47.928Z,68.39
2018-11-01T21:36:16.594Z,68.29
2018-11-01T21:38:47.848Z,68.51
2018-11-01T21:41:16.648Z,69.15
2018-11-01T21:43:51.288Z,69.07
2018-11-01T21:46:21.504Z,69.10
2018-11-01T21:48:50.162Z,68.37
2018-11-01T21:51:18.779Z,68.07
2018-11-01T21:53:47.333Z,67.76
2018-11-01T21:56:16.901Z,68.02
2018-11-01T21:58:45.447Z,67.64
2018-11-01T22:01:14.804Z,67.34
2018-11-01T22:03:43.523Z,68.67
2018-11-01T22:06:13.179Z,67.94
2018-11-01T22:08:42.738Z,68.11
2018-11-01T22:11:11.826Z,68.36
2018-11-01T22:13:40.824Z,68.79
2018-11-01T22:16:11.739Z,68.20
2018-11-01T22:18:41.075Z,68.00
2018-11-01T22:21:09.622Z,67.94
2018-11-01T22:23:38.205Z,68.43
2018-11-01T22:26:07.912Z,68.35
2018-11-01T22:28:36.452Z,67.72
2018-11-01T22:31:06.006Z,68.22
2018-11-01T22:33:35.283Z,68.44
2018-11-01T22:36:04.795Z,68.10
2018-11-01T22:38:34.369Z,68.01
2018-11-01T22:41:03.005Z,68.23
2018-11-01T22:43:32.286Z,67.75
2018-11-01T22:46:01.595Z,67.94
2018-11-01T22:48:30.117Z,67.30
2018-11-01T22:50:59.504Z,67.66
2018-11-01T22:53:28.017Z,68.24
2018-11-01T22:55:57.307Z,68.45
2018-11-01T22:58:25.959Z,68.17
2018-11-01T23:00:54.666Z,67.72
2018-11-01T23:03:23.837Z,68.40
2018-11-01T23:05:52.916Z,67.76
2018-11-01T23:08:22.050Z,68.14
2018-11-01T23:10:50.631Z,68.37
2018-11-01T23:13:19.737Z,69.28
2018-11-01T23:15:48.339Z,68.90
2018-11-01T23:18:17.258Z,69.29
2018-11-01T23:20:45.938Z,70.13
2018-11-01T23:23:14.505Z,70.34
2018-11-01T23:25:43.011Z,69.71
2018-11-01T23:28:12.962Z,70.00
2018-11-01T23:30:42.054Z,70.16
2018-11-01T23:33:11.554Z,69.53
2018-11-01T23:35:40.117Z,70.04
2018-11-01T23:38:14.627Z,69.90
2018-11-01T23:40:48.336Z,70.04
2018-11-01T23:43:22.288Z,69.91
2018-11-01T23:45:56.625Z,69.89
2018-11-01T23:48:24.313Z,69.30
2018-11-01T23:53:45.570Z,69.95
2018-11-01T23:56:15.606Z,69.92
2018-11-01T23:58:45.153Z,69.89
